イルクーツク の空港の天気 - METARとTAF

イルクーツク国際空港 ( UIII / IKT ) - ロシア イルクーツク
飛行場実況気象(Metar)
観測時間01/23 11:30 IRKT (01/23 03:30 UTC)
風向・風速東 1m/s
視程5000m
天気現象もや
少しの雲 雲底高度 1010m
気温-30℃
湿度75%
気圧1033hPa
METARUIII 230330Z 08001MPS 5000 BR FEW033 M30/M33 Q1033 R12/490345 NOSIG RMK QFE732/0976
過去の天気等 Google飛行場航空写真 Wunderground天気予報

過去48時間のMETAR

飛行場予報(TAF)
発表時間: 1/23 10:00 IRKT (1/23 02:00 UTC)
予報対象時間: 23日11時 IRKT ~ 24日11時 IRKT
風向・風速不定 1m/s
視程5,000m
天気現象もや 煙
全天の4割程度の雲 雲底高度 610m
23日11時 IRKT ~ 24日2時 IRKT に一時的に
視程1,100m
天気現象雪 もや
TAF UIII 230200Z 2303/2403 VRB01MPS 5000 BR FU SCT020
TEMPO 2303/2318 1100 SN BR